createdAt,value
2022-08-24T00:00:23.659Z,0.00
2022-08-24T00:01:23.649Z,0.00
2022-08-24T00:02:23.740Z,0.00
2022-08-24T00:03:23.792Z,0.00
2022-08-24T00:04:23.612Z,0.00
2022-08-24T00:05:23.594Z,0.00
2022-08-24T00:06:23.582Z,0.00
2022-08-24T00:07:27.422Z,0.00
2022-08-24T00:08:23.550Z,0.00
2022-08-24T00:09:23.538Z,0.00
2022-08-24T00:10:23.524Z,0.00
2022-08-24T00:11:23.512Z,0.00
2022-08-24T00:12:23.498Z,0.00
2022-08-24T00:13:23.490Z,0.00
2022-08-24T00:14:23.470Z,0.00
2022-08-24T00:15:23.459Z,0.00
2022-08-24T00:16:23.507Z,0.00
2022-08-24T00:17:23.433Z,0.00
2022-08-24T00:18:23.417Z,0.00
2022-08-24T00:19:23.405Z,0.00
2022-08-24T00:20:23.391Z,0.00
2022-08-24T00:21:23.381Z,0.00
2022-08-24T00:22:23.363Z,0.00
2022-08-24T00:23:23.352Z,0.00
2022-08-24T00:24:23.340Z,0.20
2022-08-24T00:25:23.325Z,0.00
2022-08-24T00:26:28.656Z,0.00
2022-08-24T00:27:23.299Z,0.00
2022-08-24T00:28:23.284Z,0.00
2022-08-24T00:29:23.272Z,0.00
2022-08-24T00:30:23.258Z,0.00
2022-08-24T00:31:23.268Z,0.00
2022-08-24T00:32:23.232Z,0.00
2022-08-24T00:33:23.220Z,0.00
2022-08-24T00:34:23.206Z,0.10
2022-08-24T00:35:23.193Z,0.10
2022-08-24T00:36:23.179Z,0.00
2022-08-24T00:37:23.168Z,0.00
2022-08-24T00:38:23.159Z,0.00
2022-08-24T00:39:23.141Z,0.00
2022-08-24T00:40:23.221Z,0.00
2022-08-24T00:41:23.113Z,0.00
2022-08-24T00:42:23.099Z,0.00
2022-08-24T00:43:23.093Z,0.00
2022-08-24T00:44:23.074Z,0.00
2022-08-24T00:45:23.100Z,0.00
2022-08-24T00:46:23.047Z,0.00
2022-08-24T00:47:23.037Z,0.00
2022-08-24T00:48:23.021Z,0.00
2022-08-24T00:49:23.009Z,0.00
2022-08-24T00:50:22.994Z,0.00
2022-08-24T00:51:22.982Z,0.00
2022-08-24T00:52:22.968Z,0.00
2022-08-24T00:53:22.956Z,0.00
2022-08-24T00:54:22.942Z,0.10
2022-08-24T00:55:22.931Z,0.00
2022-08-24T00:56:22.915Z,0.00
2022-08-24T00:57:22.903Z,0.00
2022-08-24T00:58:22.889Z,0.00
2022-08-24T00:59:22.877Z,0.00
2022-08-24T01:00:22.864Z,0.00
2022-08-24T01:01:22.980Z,0.00
2022-08-24T01:02:22.964Z,0.00
2022-08-24T01:03:22.825Z,0.00
2022-08-24T01:04:22.832Z,0.00
2022-08-24T01:05:22.810Z,0.00
2022-08-24T01:06:22.785Z,0.00
2022-08-24T01:07:22.773Z,0.00
2022-08-24T01:08:22.785Z,0.00
2022-08-24T01:09:22.747Z,0.00
2022-08-24T01:10:22.731Z,0.00
2022-08-24T01:11:22.720Z,0.00
2022-08-24T01:12:22.705Z,0.00
2022-08-24T01:13:22.698Z,0.00
2022-08-24T01:14:22.679Z,0.00
2022-08-24T01:15:22.667Z,0.10
2022-08-24T01:16:22.722Z,0.00
2022-08-24T01:17:22.642Z,0.10
2022-08-24T01:18:22.627Z,0.00
2022-08-24T01:19:22.615Z,0.00
2022-08-24T01:20:22.600Z,0.00
2022-08-24T01:21:22.588Z,0.10
2022-08-24T01:22:22.574Z,0.00
2022-08-24T01:23:22.561Z,0.00
2022-08-24T01:24:22.547Z,0.00
2022-08-24T01:25:22.536Z,0.00
2022-08-24T01:26:22.523Z,0.00
2022-08-24T01:27:26.321Z,0.00
2022-08-24T01:28:27.238Z,0.00
2022-08-24T01:29:23.724Z,0.00
2022-08-24T01:30:30.451Z,0.10
2022-08-24T01:31:22.535Z,0.10
2022-08-24T01:32:22.443Z,0.10
2022-08-24T01:33:22.431Z,0.10
2022-08-24T01:34:22.415Z,0.00
2022-08-24T01:35:22.404Z,0.00
2022-08-24T01:36:22.389Z,0.00
2022-08-24T01:37:22.380Z,0.00
2022-08-24T01:38:22.364Z,0.00
2022-08-24T01:39:22.351Z,0.00
2022-08-24T01:40:22.405Z,0.00
2022-08-24T01:41:25.757Z,0.00
2022-08-24T01:42:22.311Z,0.00
2022-08-24T01:43:22.298Z,0.10
2022-08-24T01:44:22.283Z,0.00
2022-08-24T01:45:22.276Z,0.10
2022-08-24T01:46:22.313Z,0.00
2022-08-24T01:47:22.244Z,0.00
2022-08-24T01:48:22.951Z,0.00
2022-08-24T01:49:22.219Z,0.00
2022-08-24T01:50:22.203Z,0.10
2022-08-24T01:51:22.191Z,0.00
2022-08-24T01:52:22.176Z,0.00
2022-08-24T01:53:22.165Z,0.00
2022-08-24T01:54:22.150Z,0.00
2022-08-24T01:55:22.416Z,0.00
2022-08-24T01:56:22.124Z,0.00
2022-08-24T01:57:23.113Z,0.00
2022-08-24T01:58:22.097Z,0.00
2022-08-24T01:59:22.085Z,0.00
2022-08-24T02:00:22.071Z,0.00
2022-08-24T02:01:22.120Z,0.10
2022-08-24T02:02:22.043Z,0.00
2022-08-24T02:03:22.071Z,0.00
2022-08-24T02:04:22.018Z,0.10
2022-08-24T02:05:22.004Z,0.10
2022-08-24T02:06:21.989Z,0.00
2022-08-24T02:07:21.978Z,0.00
2022-08-24T02:08:21.962Z,0.00
2022-08-24T02:09:21.951Z,0.10
2022-08-24T02:10:21.935Z,0.00
2022-08-24T02:11:21.923Z,0.00
2022-08-24T02:12:21.907Z,0.00
2022-08-24T02:13:21.895Z,0.00
2022-08-24T02:14:21.882Z,0.00
2022-08-24T02:15:21.869Z,0.10
2022-08-24T02:16:21.917Z,0.00
2022-08-24T02:17:21.842Z,0.00
2022-08-24T02:18:21.828Z,0.10
2022-08-24T02:19:21.815Z,0.00
2022-08-24T02:20:21.803Z,0.00
2022-08-24T02:21:21.788Z,0.10
2022-08-24T02:22:21.774Z,0.00
2022-08-24T02:23:21.762Z,0.00
2022-08-24T02:24:21.747Z,0.00
2022-08-24T02:25:21.735Z,0.00
2022-08-24T02:26:21.746Z,0.00
2022-08-24T02:27:21.707Z,0.00
2022-08-24T02:28:21.695Z,0.10
2022-08-24T02:29:21.680Z,0.10
2022-08-24T02:30:21.674Z,0.10
2022-08-24T02:31:21.738Z,0.00
2022-08-24T02:32:21.640Z,0.00
2022-08-24T02:33:21.626Z,0.00
2022-08-24T02:34:21.623Z,0.00
2022-08-24T02:35:21.600Z,0.00
2022-08-24T02:36:25.611Z,0.00
2022-08-24T02:37:21.579Z,0.00
2022-08-24T02:38:21.558Z,0.10
2022-08-24T02:39:21.545Z,0.00
2022-08-24T02:40:21.564Z,0.00
2022-08-24T02:41:21.523Z,0.00
2022-08-24T02:42:21.502Z,0.00
2022-08-24T02:43:21.491Z,0.00
2022-08-24T02:44:21.477Z,0.00
2022-08-24T02:45:21.465Z,0.00
2022-08-24T02:46:21.523Z,0.00
2022-08-24T02:47:21.437Z,0.00
2022-08-24T02:48:21.425Z,0.00
2022-08-24T02:49:21.423Z,0.10
2022-08-24T02:50:21.397Z,0.00
2022-08-24T02:51:21.384Z,0.00
2022-08-24T02:52:21.371Z,0.00
2022-08-24T02:53:21.360Z,0.10
2022-08-24T02:54:21.350Z,0.00
2022-08-24T02:55:21.329Z,0.10
2022-08-24T02:56:21.318Z,0.00
2022-08-24T02:57:21.303Z,0.00
2022-08-24T02:58:21.293Z,0.00
2022-08-24T02:59:21.277Z,0.10
2022-08-24T03:00:21.267Z,0.00
2022-08-24T03:01:23.992Z,0.00
2022-08-24T03:02:23.292Z,0.00
2022-08-24T03:03:21.226Z,0.00
2022-08-24T03:04:21.213Z,0.00
2022-08-24T03:05:21.198Z,0.10
2022-08-24T03:06:21.187Z,0.00
2022-08-24T03:07:21.173Z,0.10
2022-08-24T03:08:21.160Z,0.00
2022-08-24T03:09:21.147Z,0.00
2022-08-24T03:10:21.137Z,0.00
2022-08-24T03:11:24.585Z,0.00
2022-08-24T03:12:21.109Z,0.00
2022-08-24T03:13:21.094Z,0.00
2022-08-24T03:14:21.083Z,0.00
2022-08-24T03:15:21.068Z,0.00
2022-08-24T03:16:21.082Z,0.10
2022-08-24T03:17:21.042Z,0.00
2022-08-24T03:18:21.032Z,0.00
2022-08-24T03:19:21.017Z,0.00
2022-08-24T03:20:21.004Z,0.00
2022-08-24T03:21:20.990Z,0.00
2022-08-24T03:22:20.978Z,0.00
2022-08-24T03:23:20.965Z,0.00
2022-08-24T03:24:20.952Z,0.00
2022-08-24T03:25:20.939Z,0.00
2022-08-24T03:26:20.927Z,0.00
2022-08-24T03:27:20.913Z,0.00
2022-08-24T03:28:20.903Z,0.00
2022-08-24T03:29:20.894Z,0.00
2022-08-24T03:30:20.875Z,0.00
2022-08-24T03:31:20.861Z,0.00
2022-08-24T03:32:20.850Z,0.00
2022-08-24T03:33:20.837Z,0.10
2022-08-24T03:34:20.826Z,0.00
2022-08-24T03:35:20.810Z,0.00
2022-08-24T03:36:20.799Z,0.00
2022-08-24T03:37:20.785Z,0.00
2022-08-24T03:38:20.772Z,0.00
2022-08-24T03:39:20.759Z,0.00
2022-08-24T03:40:22.507Z,0.00
2022-08-24T03:41:20.733Z,0.70
2022-08-24T03:42:20.721Z,0.60
2022-08-24T03:43:20.708Z,0.70
2022-08-24T03:44:23.189Z,0.50
2022-08-24T03:45:20.687Z,0.60
2022-08-24T03:46:20.737Z,0.60
2022-08-24T03:47:20.656Z,0.00
2022-08-24T03:48:20.645Z,0.10
2022-08-24T03:49:20.629Z,0.00
2022-08-24T03:51:20.604Z,0.00
2022-08-24T03:52:20.592Z,0.00
2022-08-24T03:53:20.578Z,0.00
2022-08-24T03:54:20.566Z,0.10
2022-08-24T03:55:20.552Z,0.10
2022-08-24T03:56:20.540Z,0.00
2022-08-24T03:57:20.530Z,0.00
2022-08-24T03:58:20.515Z,0.00
2022-08-24T03:59:20.505Z,0.00
2022-08-24T04:00:20.488Z,0.00
2022-08-24T04:01:20.570Z,0.00
2022-08-24T04:02:20.528Z,0.00
2022-08-24T04:03:20.450Z,0.00
2022-08-24T04:04:20.439Z,0.00
2022-08-24T04:05:20.424Z,0.00
2022-08-24T04:06:20.412Z,0.10
2022-08-24T04:07:20.397Z,0.10
2022-08-24T04:08:20.386Z,0.00
2022-08-24T04:09:20.380Z,0.00
2022-08-24T04:10:20.360Z,0.00
2022-08-24T04:11:20.345Z,0.00
2022-08-24T04:12:20.334Z,0.00
2022-08-24T04:13:20.320Z,0.00
2022-08-24T04:14:26.477Z,0.00
2022-08-24T04:15:20.295Z,0.00
2022-08-24T04:16:20.369Z,0.20
2022-08-24T04:17:20.269Z,0.00
2022-08-24T04:18:20.257Z,0.00
2022-08-24T04:19:20.244Z,0.10
2022-08-24T04:20:20.231Z,0.00
2022-08-24T04:21:20.222Z,0.10
2022-08-24T04:22:20.205Z,0.00
2022-08-24T04:23:20.192Z,0.00
2022-08-24T04:24:20.179Z,0.00
2022-08-24T04:25:24.777Z,0.00
2022-08-24T04:26:28.669Z,0.10
2022-08-24T04:27:20.141Z,0.30
2022-08-24T04:28:20.128Z,0.00
2022-08-24T04:29:20.114Z,0.00
2022-08-24T04:30:20.104Z,0.00
2022-08-24T04:31:20.127Z,0.10
2022-08-24T04:32:20.077Z,0.00
2022-08-24T04:33:20.061Z,0.00
2022-08-24T04:34:20.050Z,0.00
2022-08-24T04:35:20.036Z,0.00
2022-08-24T04:36:20.023Z,0.00
2022-08-24T04:37:28.000Z,0.10
2022-08-24T04:38:19.999Z,0.10
2022-08-24T04:39:19.984Z,0.00
2022-08-24T04:40:20.064Z,0.10
2022-08-24T04:41:19.959Z,0.10
2022-08-24T04:42:19.947Z,0.10
2022-08-24T04:43:20.194Z,0.10
2022-08-24T04:44:19.921Z,0.10
2022-08-24T04:45:19.950Z,0.20
2022-08-24T04:46:19.894Z,0.10
2022-08-24T04:47:19.881Z,0.10
2022-08-24T04:48:19.869Z,1.39
2022-08-24T04:49:19.856Z,2.09
2022-08-24T04:50:19.843Z,1.79
2022-08-24T04:51:19.827Z,1.70
2022-08-24T04:52:19.815Z,1.60
2022-08-24T04:53:19.799Z,1.60
2022-08-24T04:54:19.789Z,1.70
2022-08-24T04:55:19.773Z,1.60
2022-08-24T04:56:20.124Z,1.60
2022-08-24T04:57:19.752Z,1.29
2022-08-24T04:58:19.734Z,1.29
2022-08-24T04:59:19.719Z,1.39
2022-08-24T05:00:19.707Z,1.29
2022-08-24T05:01:19.753Z,1.20
2022-08-24T05:02:19.761Z,1.20
2022-08-24T05:03:19.768Z,1.20
2022-08-24T05:04:19.660Z,1.10
2022-08-24T05:05:19.637Z,1.00
2022-08-24T05:06:19.637Z,1.00
2022-08-24T05:07:19.612Z,1.10
2022-08-24T05:08:19.601Z,1.10
2022-08-24T05:09:19.586Z,1.00
2022-08-24T05:10:19.573Z,1.00
2022-08-24T05:11:19.558Z,1.00
2022-08-24T05:12:19.547Z,1.00
2022-08-24T05:13:19.533Z,1.00
2022-08-24T05:14:19.520Z,0.90
2022-08-24T05:15:19.506Z,0.90
2022-08-24T05:16:19.560Z,0.90
2022-08-24T05:17:19.484Z,0.80
2022-08-24T05:18:19.468Z,0.70
2022-08-24T05:19:19.454Z,0.90
2022-08-24T05:20:19.442Z,0.90
2022-08-24T05:21:19.428Z,0.80
2022-08-24T05:22:19.415Z,0.70
2022-08-24T05:23:19.400Z,0.90
2022-08-24T05:24:19.390Z,0.90
2022-08-24T05:25:19.376Z,0.80
2022-08-24T05:26:19.363Z,1.00
2022-08-24T05:27:19.349Z,1.00
2022-08-24T05:28:19.337Z,1.00
2022-08-24T05:29:19.323Z,1.10
2022-08-24T05:30:19.314Z,1.20
2022-08-24T05:31:19.353Z,1.10
2022-08-24T05:32:19.285Z,1.20
2022-08-24T05:33:19.269Z,1.20
2022-08-24T05:34:19.259Z,1.20
2022-08-24T05:35:19.242Z,1.20
2022-08-24T05:36:19.232Z,1.10
2022-08-24T05:37:19.217Z,1.10
2022-08-24T05:38:19.208Z,1.10
2022-08-24T05:39:19.191Z,1.20
2022-08-24T05:40:19.235Z,1.10
2022-08-24T05:41:19.163Z,0.90
2022-08-24T05:42:19.153Z,1.10
2022-08-24T05:43:19.138Z,1.20
2022-08-24T05:44:19.128Z,1.00
2022-08-24T05:45:19.113Z,1.00
2022-08-24T05:46:19.573Z,1.00
2022-08-24T05:47:19.087Z,0.90
2022-08-24T05:48:19.075Z,0.90
2022-08-24T05:49:19.062Z,1.00
2022-08-24T05:50:19.048Z,1.20
2022-08-24T05:51:19.032Z,1.10
2022-08-24T05:52:19.024Z,1.10
2022-08-24T05:53:19.008Z,1.10
2022-08-24T05:54:18.995Z,0.90
2022-08-24T05:55:18.980Z,1.10
2022-08-24T05:56:18.971Z,1.60
2022-08-24T05:57:18.954Z,1.70
2022-08-24T05:58:30.610Z,1.60
2022-08-24T05:59:18.928Z,1.60
2022-08-24T06:00:18.916Z,1.79
2022-08-24T06:01:18.903Z,1.70
2022-08-24T06:02:19.028Z,1.50
2022-08-24T06:03:18.909Z,1.70
2022-08-24T06:04:18.864Z,1.70
2022-08-24T06:05:18.851Z,1.60
2022-08-24T06:06:18.838Z,1.60
2022-08-24T06:08:18.811Z,1.29
2022-08-24T06:09:18.798Z,1.39
2022-08-24T06:10:35.948Z,2.00
2022-08-24T06:11:18.772Z,2.00
2022-08-24T06:12:18.759Z,2.09
2022-08-24T06:13:18.746Z,2.40
2022-08-24T06:14:18.736Z,2.29
2022-08-24T06:15:18.721Z,2.50
2022-08-24T06:16:22.317Z,2.29
2022-08-24T06:17:18.807Z,2.50
2022-08-24T06:18:18.729Z,2.59
2022-08-24T06:19:18.671Z,2.29
2022-08-24T06:20:18.661Z,2.79
2022-08-24T06:21:18.648Z,2.40
2022-08-24T06:22:18.634Z,2.59
2022-08-24T06:23:18.620Z,2.50
2022-08-24T06:24:18.610Z,2.90
2022-08-24T06:25:18.594Z,3.00
2022-08-24T06:26:22.982Z,3.09
2022-08-24T06:27:18.566Z,3.00
2022-08-24T06:28:18.567Z,3.09
2022-08-24T06:29:18.540Z,3.20
2022-08-24T06:30:18.531Z,4.09
2022-08-24T06:31:18.526Z,4.19
2022-08-24T06:32:18.505Z,4.50
2022-08-24T06:33:18.490Z,4.30
2022-08-24T06:34:18.477Z,4.40
2022-08-24T06:35:18.464Z,3.90
2022-08-24T06:36:18.454Z,3.59
2022-08-24T06:37:18.438Z,3.79
2022-08-24T06:38:18.944Z,4.09
2022-08-24T06:39:18.415Z,4.09
2022-08-24T06:40:18.521Z,2.79
2022-08-24T06:41:18.390Z,2.79
2022-08-24T06:42:18.377Z,2.70
2022-08-24T06:43:18.364Z,2.90
2022-08-24T06:44:18.353Z,2.59
2022-08-24T06:45:18.339Z,2.29
2022-08-24T06:46:22.147Z,2.20
2022-08-24T06:47:20.318Z,2.20
2022-08-24T06:48:18.322Z,2.79
2022-08-24T06:49:18.289Z,2.79
2022-08-24T06:50:18.278Z,2.79
2022-08-24T06:51:18.265Z,2.79
2022-08-24T06:52:18.254Z,2.70
2022-08-24T06:53:18.241Z,2.70
2022-08-24T06:54:18.229Z,2.29
2022-08-24T06:55:18.215Z,2.20
2022-08-24T06:56:18.204Z,2.29
2022-08-24T06:57:18.190Z,2.50
2022-08-24T06:58:18.183Z,2.20
2022-08-24T06:59:18.166Z,2.20
2022-08-24T07:00:18.154Z,2.20
2022-08-24T07:01:18.213Z,2.00
2022-08-24T07:02:18.129Z,2.40
2022-08-24T07:03:18.200Z,2.70
2022-08-24T07:04:18.104Z,2.79
2022-08-24T07:05:18.095Z,2.90
2022-08-24T07:06:18.078Z,3.00
2022-08-24T07:07:18.068Z,3.09
2022-08-24T07:08:18.053Z,3.20
2022-08-24T07:09:18.046Z,3.09
2022-08-24T07:10:18.028Z,2.70
2022-08-24T07:11:18.053Z,2.79
2022-08-24T07:12:18.002Z,2.59
2022-08-24T07:13:17.995Z,2.50
2022-08-24T07:14:17.978Z,2.50
2022-08-24T07:15:17.967Z,3.00
2022-08-24T07:16:18.027Z,3.09
2022-08-24T07:17:17.942Z,3.00
2022-08-24T07:18:17.930Z,3.00
2022-08-24T07:19:17.917Z,3.00
2022-08-24T07:20:17.905Z,3.29
2022-08-24T07:21:17.893Z,3.50
2022-08-24T07:22:17.880Z,3.50
2022-08-24T07:23:17.868Z,3.29
2022-08-24T07:24:17.855Z,3.50
2022-08-24T07:25:17.844Z,3.40
2022-08-24T07:26:21.253Z,3.20
2022-08-24T07:27:17.820Z,3.79
2022-08-24T07:28:17.805Z,3.70
2022-08-24T07:29:44.027Z,3.70
2022-08-24T07:30:27.951Z,3.70
2022-08-24T07:31:19.811Z,3.90
2022-08-24T07:32:17.753Z,3.00
2022-08-24T07:33:17.741Z,3.40
2022-08-24T07:34:17.738Z,3.20
2022-08-24T07:35:17.715Z,3.29
2022-08-24T07:36:22.272Z,3.29
2022-08-24T07:37:17.691Z,3.70
2022-08-24T07:38:17.677Z,4.09
2022-08-24T07:39:17.669Z,3.79
2022-08-24T07:40:17.690Z,3.79
2022-08-24T07:41:40.557Z,3.70
2022-08-24T07:42:29.446Z,3.90
2022-08-24T07:43:17.617Z,3.79
2022-08-24T07:44:17.603Z,4.00
2022-08-24T07:45:17.590Z,4.09
2022-08-24T07:46:17.629Z,3.79
2022-08-24T07:47:52.124Z,3.90
2022-08-24T07:48:19.553Z,4.19
2022-08-24T07:49:33.259Z,4.30
2022-08-24T07:50:19.537Z,4.30
2022-08-24T07:52:17.503Z,4.19
2022-08-24T07:53:20.780Z,4.30
2022-08-24T07:54:17.481Z,4.59
2022-08-24T07:55:17.468Z,4.59
2022-08-24T07:56:17.453Z,4.59
2022-08-24T07:57:17.443Z,4.19
2022-08-24T07:58:17.429Z,4.50
2022-08-24T07:59:17.419Z,4.19
2022-08-24T08:00:17.406Z,4.30
2022-08-24T08:01:17.448Z,4.19
2022-08-24T08:02:17.475Z,4.30
2022-08-24T08:03:17.371Z,4.00
2022-08-24T08:04:17.360Z,4.00
2022-08-24T08:05:17.349Z,4.09
2022-08-24T08:06:17.337Z,4.19
2022-08-24T08:07:17.325Z,4.59
2022-08-24T08:08:17.310Z,4.80
2022-08-24T08:09:17.299Z,4.90
2022-08-24T08:10:17.285Z,4.90
2022-08-24T08:11:17.275Z,4.69
2022-08-24T08:12:17.261Z,4.90
2022-08-24T08:13:17.250Z,5.09
2022-08-24T08:14:17.237Z,4.80
2022-08-24T08:15:17.227Z,4.59
2022-08-24T08:16:17.278Z,5.00
2022-08-24T08:17:17.204Z,5.00
2022-08-24T08:18:17.190Z,4.90
2022-08-24T08:19:17.184Z,5.00
2022-08-24T08:20:18.797Z,5.00
2022-08-24T08:21:17.158Z,4.69
2022-08-24T08:22:17.151Z,5.00
2022-08-24T08:23:17.133Z,4.90
2022-08-24T08:24:17.119Z,4.80
2022-08-24T08:25:17.111Z,4.90
2022-08-24T08:26:17.097Z,4.69
2022-08-24T08:27:17.087Z,4.69
2022-08-24T08:28:25.150Z,4.69
2022-08-24T08:29:17.065Z,4.50
2022-08-24T08:30:17.051Z,4.80
2022-08-24T08:31:17.114Z,4.80
2022-08-24T08:32:17.170Z,4.80
2022-08-24T08:33:17.140Z,4.90
2022-08-24T08:34:17.008Z,4.59
2022-08-24T08:35:16.996Z,4.69
2022-08-24T08:36:16.987Z,4.50
2022-08-24T08:37:16.981Z,5.00
2022-08-24T08:38:16.963Z,5.00
2022-08-24T08:39:16.953Z,5.09
2022-08-24T08:40:17.030Z,5.40
2022-08-24T08:41:16.931Z,5.40
2022-08-24T08:42:16.918Z,5.19
2022-08-24T08:43:16.909Z,5.09
2022-08-24T08:44:16.900Z,5.50
2022-08-24T08:45:16.887Z,5.59
2022-08-24T08:46:16.992Z,5.40
2022-08-24T08:47:16.864Z,5.30
2022-08-24T08:48:16.852Z,5.40
2022-08-24T08:49:16.842Z,5.50
2022-08-24T08:50:16.836Z,5.50
2022-08-24T08:51:16.817Z,5.80
2022-08-24T08:52:16.806Z,5.50
2022-08-24T08:53:16.795Z,5.69
2022-08-24T08:54:16.782Z,5.50
2022-08-24T08:55:16.773Z,5.80
2022-08-24T08:56:16.768Z,5.80
2022-08-24T08:57:17.375Z,5.90
2022-08-24T08:58:16.737Z,5.69
2022-08-24T08:59:16.729Z,6.00
2022-08-24T09:00:16.715Z,5.59
2022-08-24T09:01:16.775Z,5.59
2022-08-24T09:02:16.691Z,5.80
2022-08-24T09:03:16.681Z,5.30
2022-08-24T09:04:21.421Z,5.30
2022-08-24T09:05:16.655Z,5.30
2022-08-24T09:06:16.646Z,5.40
2022-08-24T09:07:16.633Z,5.50
2022-08-24T09:08:16.621Z,5.50
2022-08-24T09:09:16.611Z,5.50
2022-08-24T09:10:16.600Z,5.69
2022-08-24T09:11:16.588Z,5.59
2022-08-24T09:12:16.576Z,5.50
2022-08-24T09:13:16.569Z,5.69
2022-08-24T09:14:16.557Z,5.30
2022-08-24T09:15:16.549Z,5.30
2022-08-24T09:16:16.576Z,5.19
2022-08-24T09:17:16.559Z,5.09
2022-08-24T09:18:16.512Z,5.19
2022-08-24T09:19:16.503Z,5.30
2022-08-24T09:20:16.490Z,5.69
2022-08-24T09:21:16.481Z,5.59
2022-08-24T09:22:16.468Z,5.50
2022-08-24T09:23:16.459Z,5.30
2022-08-24T09:24:16.447Z,5.19
2022-08-24T09:25:16.436Z,5.80
2022-08-24T09:26:19.097Z,5.80
2022-08-24T09:27:16.415Z,6.00
2022-08-24T09:28:16.402Z,5.80
2022-08-24T09:29:16.394Z,5.90
2022-08-24T09:30:16.381Z,5.50
2022-08-24T09:31:16.482Z,5.59
2022-08-24T09:32:18.105Z,5.90
2022-08-24T09:33:16.349Z,5.30
2022-08-24T09:34:16.338Z,5.50
2022-08-24T09:35:26.721Z,5.50
2022-08-24T09:36:16.316Z,5.40
2022-08-24T09:37:16.306Z,5.69
2022-08-24T09:38:16.294Z,5.40
2022-08-24T09:39:16.286Z,5.40
2022-08-24T09:40:16.363Z,5.30
2022-08-24T09:41:16.262Z,5.00
2022-08-24T09:42:16.260Z,5.30
2022-08-24T09:43:16.241Z,4.90
2022-08-24T09:44:16.226Z,5.40
2022-08-24T09:45:16.215Z,4.90
2022-08-24T09:46:16.269Z,5.19
2022-08-24T09:47:16.193Z,5.40
2022-08-24T09:48:16.322Z,5.59
2022-08-24T09:49:16.173Z,5.50
2022-08-24T09:50:16.198Z,5.30
2022-08-24T09:51:16.153Z,5.19
2022-08-24T09:52:16.137Z,5.59
2022-08-24T09:53:16.128Z,5.50
2022-08-24T09:54:16.118Z,5.40
2022-08-24T09:55:16.106Z,5.59
2022-08-24T09:56:16.094Z,5.30
2022-08-24T09:57:19.813Z,5.80
2022-08-24T09:58:16.086Z,5.59
2022-08-24T09:59:16.063Z,5.69
2022-08-24T10:00:16.084Z,5.80
2022-08-24T10:01:16.119Z,5.59
2022-08-24T10:02:16.078Z,5.50
2022-08-24T10:03:16.020Z,5.59
2022-08-24T10:04:16.007Z,5.59
2022-08-24T10:05:16.158Z,5.59
2022-08-24T10:06:16.152Z,5.50
2022-08-24T10:07:15.976Z,4.80
2022-08-24T10:08:15.973Z,5.40
2022-08-24T10:09:15.953Z,5.69
2022-08-24T10:10:16.000Z,5.80
2022-08-24T10:11:15.932Z,5.59
2022-08-24T10:12:15.922Z,5.40
2022-08-24T10:13:15.911Z,5.50
2022-08-24T10:14:15.899Z,5.80
2022-08-24T10:15:15.893Z,5.90
2022-08-24T10:16:15.902Z,5.59
2022-08-24T10:17:15.870Z,5.59
2022-08-24T10:18:15.856Z,5.90
2022-08-24T10:19:15.846Z,5.90
2022-08-24T10:20:15.880Z,6.00
2022-08-24T10:21:15.828Z,5.80
2022-08-24T10:22:15.815Z,6.00
2022-08-24T10:23:15.806Z,5.90
2022-08-24T10:24:15.794Z,5.90
2022-08-24T10:25:15.784Z,6.00
2022-08-24T10:26:15.773Z,5.69
2022-08-24T10:27:15.764Z,5.69
2022-08-24T10:28:15.755Z,6.30
2022-08-24T10:29:15.744Z,5.90
2022-08-24T10:30:15.837Z,6.19
2022-08-24T10:31:15.738Z,5.69
2022-08-24T10:32:15.710Z,5.69
2022-08-24T10:33:15.700Z,5.80
2022-08-24T10:34:15.689Z,5.90
2022-08-24T10:35:15.683Z,5.90
2022-08-24T10:36:15.667Z,5.69
2022-08-24T10:37:15.658Z,5.90
2022-08-24T10:38:15.646Z,5.90
2022-08-24T10:39:15.637Z,5.90
2022-08-24T10:40:15.745Z,5.69
2022-08-24T10:41:15.617Z,5.59
2022-08-24T10:42:15.606Z,5.90
2022-08-24T10:43:15.599Z,6.19
2022-08-24T10:44:15.586Z,5.90
2022-08-24T10:45:15.578Z,5.50
2022-08-24T10:46:15.626Z,5.50
2022-08-24T10:47:15.557Z,5.50
2022-08-24T10:48:15.545Z,5.19
2022-08-24T10:49:15.538Z,5.19
2022-08-24T10:50:15.525Z,5.40
2022-08-24T10:51:15.519Z,5.40
2022-08-24T10:52:15.510Z,5.50
2022-08-24T10:53:15.496Z,5.69
2022-08-24T10:54:15.485Z,6.09
2022-08-24T10:55:15.476Z,6.09
2022-08-24T10:56:15.463Z,6.19
2022-08-24T10:57:15.456Z,6.40
2022-08-24T10:58:15.444Z,6.50
2022-08-24T10:59:15.436Z,6.30
2022-08-24T11:00:18.214Z,6.40
2022-08-24T11:01:15.456Z,6.09
2022-08-24T11:02:15.450Z,6.40
2022-08-24T11:03:15.392Z,6.40
2022-08-24T11:04:15.381Z,6.09
2022-08-24T11:05:15.372Z,6.19
2022-08-24T11:06:15.361Z,6.19
2022-08-24T11:07:15.350Z,6.59
2022-08-24T11:08:15.337Z,6.69
2022-08-24T11:09:19.499Z,6.59
2022-08-24T11:10:15.318Z,6.80
2022-08-24T11:11:15.309Z,7.00
2022-08-24T11:12:15.295Z,6.90
2022-08-24T11:13:15.284Z,7.09
2022-08-24T11:14:15.273Z,6.69
2022-08-24T11:15:15.266Z,7.09
2022-08-24T11:16:15.337Z,6.80
2022-08-24T11:17:15.244Z,6.69
2022-08-24T11:18:15.231Z,6.50
2022-08-24T11:19:15.220Z,6.30
2022-08-24T11:20:15.211Z,6.19
2022-08-24T11:21:15.199Z,6.40
2022-08-24T11:22:15.189Z,6.40
2022-08-24T11:23:15.178Z,6.30
2022-08-24T11:24:15.167Z,6.30
2022-08-24T11:25:15.154Z,6.09
2022-08-24T11:26:15.147Z,6.30
2022-08-24T11:27:15.132Z,6.40
2022-08-24T11:28:15.125Z,6.69
2022-08-24T11:29:15.112Z,6.40
2022-08-24T11:30:15.109Z,6.40
2022-08-24T11:31:15.137Z,6.30
2022-08-24T11:32:15.080Z,6.40
2022-08-24T11:33:15.067Z,6.30
2022-08-24T11:34:15.057Z,6.09
2022-08-24T11:35:15.047Z,6.09
2022-08-24T11:36:15.035Z,6.19
2022-08-24T11:37:15.023Z,6.19
2022-08-24T11:38:15.014Z,6.50
2022-08-24T11:39:15.001Z,6.59
2022-08-24T11:40:15.096Z,6.80
2022-08-24T11:41:14.980Z,6.59
2022-08-24T11:42:14.970Z,6.59
2022-08-24T11:43:14.959Z,7.00
2022-08-24T11:44:14.948Z,6.90
2022-08-24T11:45:14.941Z,6.40
2022-08-24T11:46:14.958Z,6.19
2022-08-24T11:47:14.914Z,6.30
2022-08-24T11:48:14.903Z,6.09
2022-08-24T11:49:14.893Z,5.80
2022-08-24T11:50:14.884Z,6.00
2022-08-24T11:51:14.871Z,6.09
2022-08-24T11:53:14.849Z,6.50
2022-08-24T11:54:14.843Z,6.50
2022-08-24T11:55:14.830Z,7.00
2022-08-24T11:56:16.348Z,6.59
2022-08-24T11:57:14.810Z,6.59
2022-08-24T11:58:14.800Z,6.50
2022-08-24T11:59:14.790Z,6.90
2022-08-24T12:00:14.778Z,6.80
2022-08-24T12:01:14.768Z,7.30
2022-08-24T12:02:14.923Z,6.90
2022-08-24T12:03:14.888Z,7.09
2022-08-24T12:04:14.738Z,6.80
2022-08-24T12:05:16.302Z,6.69
2022-08-24T12:06:14.720Z,7.09
2022-08-24T12:07:14.714Z,6.90
2022-08-24T12:08:14.696Z,6.80
2022-08-24T12:09:14.686Z,7.00
2022-08-24T12:10:14.685Z,6.90
2022-08-24T12:11:14.664Z,7.00
2022-08-24T12:12:14.661Z,6.80
2022-08-24T12:13:14.645Z,6.80
2022-08-24T12:14:14.637Z,6.90
2022-08-24T12:15:14.625Z,7.00
2022-08-24T12:16:14.668Z,6.90
2022-08-24T12:17:14.606Z,7.00
2022-08-24T12:18:14.595Z,6.69
2022-08-24T12:19:14.586Z,6.59
2022-08-24T12:20:14.575Z,6.90
2022-08-24T12:21:14.565Z,7.00
2022-08-24T12:22:14.556Z,7.50
2022-08-24T12:23:14.544Z,7.40
2022-08-24T12:24:14.534Z,7.30
2022-08-24T12:25:14.523Z,7.40
2022-08-24T12:26:14.517Z,7.59
2022-08-24T12:27:14.504Z,7.59
2022-08-24T12:28:14.493Z,7.40
2022-08-24T12:29:14.481Z,7.59
2022-08-24T12:30:14.471Z,7.50
2022-08-24T12:31:14.753Z,7.40
2022-08-24T12:32:14.450Z,7.30
2022-08-24T12:33:14.439Z,7.19
2022-08-24T12:34:14.432Z,8.00
2022-08-24T12:35:14.418Z,7.69
2022-08-24T12:36:14.410Z,7.40
2022-08-24T12:37:16.420Z,7.50
2022-08-24T12:38:14.389Z,7.09
2022-08-24T12:39:14.378Z,6.69
2022-08-24T12:40:14.482Z,6.09
2022-08-24T12:41:17.703Z,6.09
2022-08-24T12:42:17.027Z,5.90
2022-08-24T12:43:14.334Z,5.19
2022-08-24T12:44:14.326Z,4.59
2022-08-24T12:45:14.313Z,4.30
2022-08-24T12:46:14.325Z,3.90
2022-08-24T12:47:14.292Z,3.70
2022-08-24T12:48:14.279Z,3.79
2022-08-24T12:49:14.267Z,3.79
2022-08-24T12:50:14.257Z,4.30
2022-08-24T12:51:14.245Z,3.70
2022-08-24T12:52:14.239Z,3.70
2022-08-24T12:53:14.348Z,3.70
2022-08-24T12:54:14.213Z,3.59
2022-08-24T12:55:14.200Z,4.19
2022-08-24T12:56:14.189Z,4.09
2022-08-24T12:57:14.177Z,4.00
2022-08-24T12:58:31.327Z,4.30
2022-08-24T12:59:16.155Z,4.40
2022-08-24T13:00:14.144Z,4.59
2022-08-24T13:01:14.222Z,4.30
2022-08-24T13:02:14.166Z,4.40
2022-08-24T13:03:14.109Z,4.59
2022-08-24T13:04:14.097Z,4.59
2022-08-24T13:05:14.340Z,4.59
2022-08-24T13:06:14.077Z,5.09
2022-08-24T13:07:14.065Z,5.19
2022-08-24T13:08:14.059Z,4.90
2022-08-24T13:09:14.044Z,5.30
2022-08-24T13:10:14.036Z,5.30
2022-08-24T13:11:14.020Z,5.59
2022-08-24T13:12:14.012Z,4.59
2022-08-24T13:13:13.999Z,5.50
2022-08-24T13:14:13.992Z,5.50
2022-08-24T13:15:13.978Z,5.40
2022-08-24T13:16:14.043Z,5.90
2022-08-24T13:17:13.958Z,5.59
2022-08-24T13:18:13.955Z,5.19
2022-08-24T13:19:13.936Z,5.40
2022-08-24T13:20:13.929Z,5.69
2022-08-24T13:21:13.916Z,6.00
2022-08-24T13:22:13.906Z,6.40